sensor_id;sensor_type;location;lat;lon;timestamp;P1;durP1;ratioP1;P2;durP2;ratioP2
28174;SDS011;59417;44.788;10.334;2023-06-14T00:01:44;4.63;;;3.88;;
28174;SDS011;59417;44.788;10.334;2023-06-14T00:04:13;4.93;;;4.30;;
28174;SDS011;59417;44.788;10.334;2023-06-14T00:06:42;7.85;;;4.85;;
28174;SDS011;59417;44.788;10.334;2023-06-14T00:09:10;7.22;;;4.57;;
28174;SDS011;59417;44.788;10.334;2023-06-14T00:11:38;5.32;;;4.30;;
28174;SDS011;59417;44.788;10.334;2023-06-14T00:14:05;5.80;;;5.20;;
28174;SDS011;59417;44.788;10.334;2023-06-14T00:16:31;10.20;;;5.55;;
28174;SDS011;59417;44.788;10.334;2023-06-14T00:18:58;8.07;;;4.70;;
28174;SDS011;59417;44.788;10.334;2023-06-14T00:21:25;10.18;;;6.45;;
28174;SDS011;59417;44.788;10.334;2023-06-14T00:23:54;8.57;;;5.57;;
28174;SDS011;59417;44.788;10.334;2023-06-14T00:26:21;9.75;;;6.15;;
28174;SDS011;59417;44.788;10.334;2023-06-14T00:28:46;5.70;;;5.10;;
28174;SDS011;59417;44.788;10.334;2023-06-14T00:31:12;7.90;;;5.65;;
28174;SDS011;59417;44.788;10.334;2023-06-14T00:33:41;8.45;;;5.68;;
28174;SDS011;59417;44.788;10.334;2023-06-14T00:36:06;5.93;;;5.32;;
28174;SDS011;59417;44.788;10.334;2023-06-14T00:38:32;8.00;;;5.32;;
28174;SDS011;59417;44.788;10.334;2023-06-14T00:40:58;10.02;;;5.50;;
28174;SDS011;59417;44.788;10.334;2023-06-14T00:43:23;10.25;;;5.55;;
28174;SDS011;59417;44.788;10.334;2023-06-14T00:45:49;7.68;;;5.43;;
28174;SDS011;59417;44.788;10.334;2023-06-14T00:48:16;13.30;;;4.88;;
28174;SDS011;59417;44.788;10.334;2023-06-14T00:50:43;11.50;;;5.10;;
28174;SDS011;59417;44.788;10.334;2023-06-14T00:53:14;8.63;;;4.95;;
28174;SDS011;59417;44.788;10.334;2023-06-14T00:55:40;13.25;;;4.75;;
28174;SDS011;59417;44.788;10.334;2023-06-14T00:58:06;9.10;;;4.30;;
28174;SDS011;59417;44.788;10.334;2023-06-14T01:00:33;7.65;;;4.32;;
28174;SDS011;59417;44.788;10.334;2023-06-14T01:02:59;9.18;;;4.65;;
28174;SDS011;59417;44.788;10.334;2023-06-14T01:05:25;6.30;;;4.78;;
28174;SDS011;59417;44.788;10.334;2023-06-14T01:13:05;8.48;;;4.82;;
28174;SDS011;59417;44.788;10.334;2023-06-14T01:15:43;7.18;;;4.93;;
28174;SDS011;59417;44.788;10.334;2023-06-14T01:18:10;8.80;;;4.47;;
28174;SDS011;59417;44.788;10.334;2023-06-14T01:20:43;8.30;;;4.82;;
28174;SDS011;59417;44.788;10.334;2023-06-14T01:23:16;8.40;;;4.85;;
28174;SDS011;59417;44.788;10.334;2023-06-14T01:25:42;10.75;;;4.78;;
28174;SDS011;59417;44.788;10.334;2023-06-14T01:28:10;7.07;;;4.65;;
28174;SDS011;59417;44.788;10.334;2023-06-14T01:30:41;9.02;;;4.75;;
28174;SDS011;59417;44.788;10.334;2023-06-14T01:33:13;10.02;;;4.78;;
28174;SDS011;59417;44.788;10.334;2023-06-14T01:35:44;9.60;;;4.45;;
28174;SDS011;59417;44.788;10.334;2023-06-14T01:38:15;11.43;;;4.57;;
28174;SDS011;59417;44.788;10.334;2023-06-14T01:40:42;9.18;;;4.40;;
28174;SDS011;59417;44.788;10.334;2023-06-14T01:43:09;7.93;;;4.68;;
28174;SDS011;59417;44.788;10.334;2023-06-14T01:45:36;6.40;;;4.43;;
28174;SDS011;59417;44.788;10.334;2023-06-14T01:48:04;8.15;;;4.25;;
28174;SDS011;59417;44.788;10.334;2023-06-14T01:50:30;8.30;;;4.53;;
28174;SDS011;59417;44.788;10.334;2023-06-14T01:52:56;9.32;;;4.50;;
28174;SDS011;59417;44.788;10.334;2023-06-14T01:55:23;10.65;;;4.82;;
28174;SDS011;59417;44.788;10.334;2023-06-14T01:57:53;5.57;;;3.45;;
28174;SDS011;59417;44.788;10.334;2023-06-14T02:00:19;9.10;;;4.00;;
28174;SDS011;59417;44.788;10.334;2023-06-14T02:02:47;8.50;;;4.03;;
28174;SDS011;59417;44.788;10.334;2023-06-14T02:05:13;9.35;;;4.15;;
28174;SDS011;59417;44.788;10.334;2023-06-14T02:07:40;7.68;;;4.22;;
28174;SDS011;59417;44.788;10.334;2023-06-14T02:10:06;7.95;;;4.60;;
28174;SDS011;59417;44.788;10.334;2023-06-14T02:12:32;9.55;;;4.45;;
28174;SDS011;59417;44.788;10.334;2023-06-14T02:14:57;8.30;;;4.50;;
28174;SDS011;59417;44.788;10.334;2023-06-14T02:17:23;6.43;;;4.38;;
28174;SDS011;59417;44.788;10.334;2023-06-14T02:19:50;13.68;;;4.85;;
28174;SDS011;59417;44.788;10.334;2023-06-14T02:22:15;10.35;;;4.78;;
28174;SDS011;59417;44.788;10.334;2023-06-14T02:24:42;7.28;;;5.00;;
28174;SDS011;59417;44.788;10.334;2023-06-14T02:27:08;7.18;;;4.47;;
28174;SDS011;59417;44.788;10.334;2023-06-14T02:29:37;12.63;;;5.67;;
28174;SDS011;59417;44.788;10.334;2023-06-14T02:32:03;6.35;;;4.63;;
28174;SDS011;59417;44.788;10.334;2023-06-14T02:34:30;8.48;;;5.20;;
28174;SDS011;59417;44.788;10.334;2023-06-14T02:36:56;9.10;;;4.60;;
28174;SDS011;59417;44.788;10.334;2023-06-14T02:39:22;6.55;;;5.15;;
28174;SDS011;59417;44.788;10.334;2023-06-14T02:41:48;11.10;;;6.13;;
28174;SDS011;59417;44.788;10.334;2023-06-14T02:44:23;13.05;;;5.95;;
28174;SDS011;59417;44.788;10.334;2023-06-14T02:46:51;9.20;;;6.13;;
28174;SDS011;59417;44.788;10.334;2023-06-14T02:49:17;10.48;;;5.55;;
28174;SDS011;59417;44.788;10.334;2023-06-14T02:51:43;6.90;;;5.35;;
28174;SDS011;59417;44.788;10.334;2023-06-14T02:54:08;11.13;;;6.63;;
28174;SDS011;59417;44.788;10.334;2023-06-14T02:56:37;11.98;;;6.60;;
28174;SDS011;59417;44.788;10.334;2023-06-14T02:59:02;10.68;;;6.20;;
28174;SDS011;59417;44.788;10.334;2023-06-14T03:01:29;9.63;;;6.00;;
28174;SDS011;59417;44.788;10.334;2023-06-14T03:04:01;9.70;;;6.72;;
28174;SDS011;59417;44.788;10.334;2023-06-14T03:06:29;9.73;;;6.85;;
28174;SDS011;59417;44.788;10.334;2023-06-14T03:08:57;10.18;;;7.60;;
28174;SDS011;59417;44.788;10.334;2023-06-14T03:11:25;15.70;;;7.75;;
28174;SDS011;59417;44.788;10.334;2023-06-14T03:13:57;8.95;;;7.43;;
28174;SDS011;59417;44.788;10.334;2023-06-14T03:16:25;8.82;;;6.28;;
28174;SDS011;59417;44.788;10.334;2023-06-14T03:18:51;13.48;;;7.40;;
28174;SDS011;59417;44.788;10.334;2023-06-14T03:21:18;10.75;;;7.47;;
28174;SDS011;59417;44.788;10.334;2023-06-14T03:23:45;11.82;;;8.13;;
28174;SDS011;59417;44.788;10.334;2023-06-14T03:26:12;9.32;;;6.68;;
28174;SDS011;59417;44.788;10.334;2023-06-14T03:28:45;9.40;;;7.72;;
28174;SDS011;59417;44.788;10.334;2023-06-14T03:31:12;9.80;;;7.40;;
28174;SDS011;59417;44.788;10.334;2023-06-14T03:33:39;11.15;;;7.95;;
28174;SDS011;59417;44.788;10.334;2023-06-14T03:36:05;10.80;;;7.60;;
28174;SDS011;59417;44.788;10.334;2023-06-14T03:38:35;10.65;;;7.70;;
28174;SDS011;59417;44.788;10.334;2023-06-14T03:41:02;12.02;;;8.23;;
28174;SDS011;59417;44.788;10.334;2023-06-14T03:43:28;11.43;;;7.70;;
28174;SDS011;59417;44.788;10.334;2023-06-14T03:45:55;12.38;;;7.90;;
28174;SDS011;59417;44.788;10.334;2023-06-14T03:48:23;12.52;;;8.27;;
28174;SDS011;59417;44.788;10.334;2023-06-14T03:50:49;11.60;;;7.63;;
28174;SDS011;59417;44.788;10.334;2023-06-14T03:53:15;9.43;;;7.75;;
28174;SDS011;59417;44.788;10.334;2023-06-14T03:55:46;10.75;;;7.18;;
28174;SDS011;59417;44.788;10.334;2023-06-14T03:58:15;10.60;;;7.30;;
28174;SDS011;59417;44.788;10.334;2023-06-14T04:00:41;9.57;;;6.72;;
28174;SDS011;59417;44.788;10.334;2023-06-14T04:03:06;9.45;;;7.35;;
28174;SDS011;59417;44.788;10.334;2023-06-14T04:05:32;10.70;;;8.00;;
28174;SDS011;59417;44.788;10.334;2023-06-14T04:07:59;9.55;;;7.00;;
28174;SDS011;59417;44.788;10.334;2023-06-14T04:10:26;10.88;;;6.68;;
28174;SDS011;59417;44.788;10.334;2023-06-14T04:12:52;9.95;;;6.80;;
28174;SDS011;59417;44.788;10.334;2023-06-14T04:15:18;11.35;;;6.70;;
28174;SDS011;59417;44.788;10.334;2023-06-14T04:17:44;10.48;;;6.88;;
28174;SDS011;59417;44.788;10.334;2023-06-14T04:20:10;9.98;;;7.05;;
28174;SDS011;59417;44.788;10.334;2023-06-14T04:22:36;10.07;;;7.68;;
28174;SDS011;59417;44.788;10.334;2023-06-14T04:25:04;10.07;;;8.27;;
28174;SDS011;59417;44.788;10.334;2023-06-14T04:27:32;13.25;;;7.40;;
28174;SDS011;59417;44.788;10.334;2023-06-14T04:30:02;9.30;;;7.30;;
28174;SDS011;59417;44.788;10.334;2023-06-14T04:32:33;12.30;;;7.38;;
28174;SDS011;59417;44.788;10.334;2023-06-14T04:35:04;9.93;;;6.57;;
28174;SDS011;59417;44.788;10.334;2023-06-14T04:37:34;12.13;;;6.97;;
28174;SDS011;59417;44.788;10.334;2023-06-14T04:40:00;10.85;;;7.30;;
28174;SDS011;59417;44.788;10.334;2023-06-14T04:42:26;11.13;;;7.45;;
28174;SDS011;59417;44.788;10.334;2023-06-14T04:44:57;9.70;;;6.85;;
28174;SDS011;59417;44.788;10.334;2023-06-14T04:47:24;10.25;;;7.80;;
28174;SDS011;59417;44.788;10.334;2023-06-14T04:49:50;8.45;;;7.05;;
28174;SDS011;59417;44.788;10.334;2023-06-14T04:52:20;12.57;;;7.72;;
28174;SDS011;59417;44.788;10.334;2023-06-14T04:54:46;12.98;;;6.88;;
28174;SDS011;59417;44.788;10.334;2023-06-14T04:57:17;12.90;;;7.45;;
28174;SDS011;59417;44.788;10.334;2023-06-14T04:59:45;9.15;;;7.68;;
28174;SDS011;59417;44.788;10.334;2023-06-14T05:02:10;9.55;;;7.75;;
28174;SDS011;59417;44.788;10.334;2023-06-14T05:04:37;10.65;;;6.95;;
28174;SDS011;59417;44.788;10.334;2023-06-14T05:07:09;11.93;;;8.37;;
28174;SDS011;59417;44.788;10.334;2023-06-14T05:09:36;11.57;;;8.75;;
28174;SDS011;59417;44.788;10.334;2023-06-14T05:12:02;11.18;;;8.73;;
28174;SDS011;59417;44.788;10.334;2023-06-14T05:14:28;13.75;;;9.35;;
28174;SDS011;59417;44.788;10.334;2023-06-14T05:16:56;17.55;;;11.00;;
28174;SDS011;59417;44.788;10.334;2023-06-14T05:19:22;15.55;;;11.00;;
28174;SDS011;59417;44.788;10.334;2023-06-14T05:21:48;13.60;;;10.18;;
28174;SDS011;59417;44.788;10.334;2023-06-14T05:24:14;14.43;;;10.38;;
28174;SDS011;59417;44.788;10.334;2023-06-14T05:26:42;16.52;;;11.52;;
28174;SDS011;59417;44.788;10.334;2023-06-14T05:29:08;15.05;;;10.40;;
28174;SDS011;59417;44.788;10.334;2023-06-14T05:31:33;11.43;;;9.70;;
28174;SDS011;59417;44.788;10.334;2023-06-14T05:33:59;13.68;;;8.30;;
28174;SDS011;59417;44.788;10.334;2023-06-14T05:36:25;8.30;;;7.43;;
28174;SDS011;59417;44.788;10.334;2023-06-14T05:38:53;10.50;;;7.38;;
28174;SDS011;59417;44.788;10.334;2023-06-14T05:41:26;12.75;;;7.88;;
28174;SDS011;59417;44.788;10.334;2023-06-14T05:43:53;12.30;;;8.45;;
28174;SDS011;59417;44.788;10.334;2023-06-14T05:46:19;12.93;;;9.35;;
28174;SDS011;59417;44.788;10.334;2023-06-14T05:48:47;13.90;;;7.70;;
28174;SDS011;59417;44.788;10.334;2023-06-14T05:51:14;8.55;;;6.82;;
28174;SDS011;59417;44.788;10.334;2023-06-14T05:53:39;10.25;;;7.13;;
28174;SDS011;59417;44.788;10.334;2023-06-14T05:56:05;14.70;;;8.40;;
28174;SDS011;59417;44.788;10.334;2023-06-14T05:58:31;12.18;;;9.25;;
28174;SDS011;59417;44.788;10.334;2023-06-14T06:00:57;13.15;;;9.43;;
28174;SDS011;59417;44.788;10.334;2023-06-14T06:03:23;18.95;;;10.00;;
28174;SDS011;59417;44.788;10.334;2023-06-14T06:05:48;17.10;;;9.93;;
28174;SDS011;59417;44.788;10.334;2023-06-14T06:08:14;17.23;;;9.68;;
28174;SDS011;59417;44.788;10.334;2023-06-14T06:10:41;13.98;;;10.75;;
28174;SDS011;59417;44.788;10.334;2023-06-14T06:13:07;18.45;;;12.07;;
28174;SDS011;59417;44.788;10.334;2023-06-14T06:15:33;15.40;;;11.57;;
28174;SDS011;59417;44.788;10.334;2023-06-14T06:17:58;15.00;;;11.02;;
28174;SDS011;59417;44.788;10.334;2023-06-14T06:20:24;16.88;;;11.00;;
28174;SDS011;59417;44.788;10.334;2023-06-14T06:22:53;14.13;;;11.23;;
28174;SDS011;59417;44.788;10.334;2023-06-14T06:25:19;12.15;;;10.52;;
28174;SDS011;59417;44.788;10.334;2023-06-14T06:27:44;13.38;;;10.20;;
28174;SDS011;59417;44.788;10.334;2023-06-14T06:30:10;13.90;;;10.45;;
28174;SDS011;59417;44.788;10.334;2023-06-14T06:32:36;13.63;;;11.55;;
28174;SDS011;59417;44.788;10.334;2023-06-14T06:35:02;15.38;;;11.80;;
28174;SDS011;59417;44.788;10.334;2023-06-14T06:37:31;15.67;;;12.57;;
28174;SDS011;59417;44.788;10.334;2023-06-14T06:39:57;15.85;;;11.00;;
28174;SDS011;59417;44.788;10.334;2023-06-14T06:42:22;15.68;;;10.98;;
28174;SDS011;59417;44.788;10.334;2023-06-14T06:44:50;14.35;;;11.23;;
28174;SDS011;59417;44.788;10.334;2023-06-14T06:47:15;15.32;;;10.82;;
28174;SDS011;59417;44.788;10.334;2023-06-14T06:49:41;12.82;;;9.60;;
28174;SDS011;59417;44.788;10.334;2023-06-14T06:52:07;19.98;;;10.80;;
28174;SDS011;59417;44.788;10.334;2023-06-14T06:54:33;15.25;;;10.20;;
28174;SDS011;59417;44.788;10.334;2023-06-14T06:56:59;11.73;;;9.27;;
28174;SDS011;59417;44.788;10.334;2023-06-14T06:59:25;13.45;;;8.70;;
28174;SDS011;59417;44.788;10.334;2023-06-14T07:01:51;14.35;;;10.60;;
28174;SDS011;59417;44.788;10.334;2023-06-14T07:04:17;17.70;;;10.70;;
28174;SDS011;59417;44.788;10.334;2023-06-14T07:06:43;11.95;;;9.38;;
28174;SDS011;59417;44.788;10.334;2023-06-14T07:09:09;14.77;;;9.20;;
28174;SDS011;59417;44.788;10.334;2023-06-14T07:11:39;13.52;;;9.05;;
28174;SDS011;59417;44.788;10.334;2023-06-14T07:14:05;13.70;;;8.88;;
28174;SDS011;59417;44.788;10.334;2023-06-14T07:16:31;9.93;;;7.40;;
28174;SDS011;59417;44.788;10.334;2023-06-14T07:18:57;7.93;;;7.13;;
28174;SDS011;59417;44.788;10.334;2023-06-14T07:21:23;10.43;;;7.90;;
28174;SDS011;59417;44.788;10.334;2023-06-14T07:23:51;9.13;;;7.72;;
28174;SDS011;59417;44.788;10.334;2023-06-14T07:26:20;8.35;;;7.15;;
28174;SDS011;59417;44.788;10.334;2023-06-14T07:28:46;9.25;;;7.68;;
28174;SDS011;59417;44.788;10.334;2023-06-14T07:31:14;10.95;;;8.00;;
28174;SDS011;59417;44.788;10.334;2023-06-14T07:33:44;10.57;;;8.10;;
28174;SDS011;59417;44.788;10.334;2023-06-14T07:36:10;11.90;;;8.20;;
28174;SDS011;59417;44.788;10.334;2023-06-14T07:38:36;12.77;;;9.15;;
28174;SDS011;59417;44.788;10.334;2023-06-14T07:41:02;11.40;;;8.90;;
28174;SDS011;59417;44.788;10.334;2023-06-14T07:43:27;11.18;;;8.32;;
28174;SDS011;59417;44.788;10.334;2023-06-14T07:45:53;12.48;;;10.18;;
28174;SDS011;59417;44.788;10.334;2023-06-14T07:48:20;16.50;;;11.18;;
28174;SDS011;59417;44.788;10.334;2023-06-14T07:50:45;14.90;;;10.60;;
28174;SDS011;59417;44.788;10.334;2023-06-14T07:53:11;15.63;;;11.70;;
28174;SDS011;59417;44.788;10.334;2023-06-14T07:55:37;18.73;;;13.60;;
28174;SDS011;59417;44.788;10.334;2023-06-14T07:58:03;20.42;;;14.00;;
28174;SDS011;59417;44.788;10.334;2023-06-14T08:00:29;19.08;;;14.80;;
28174;SDS011;59417;44.788;10.334;2023-06-14T08:02:55;20.05;;;17.17;;
28174;SDS011;59417;44.788;10.334;2023-06-14T08:05:25;23.15;;;17.95;;
28174;SDS011;59417;44.788;10.334;2023-06-14T08:10:20;26.58;;;17.42;;
28174;SDS011;59417;44.788;10.334;2023-06-14T08:12:46;24.40;;;19.48;;
28174;SDS011;59417;44.788;10.334;2023-06-14T08:15:12;26.63;;;18.88;;
28174;SDS011;59417;44.788;10.334;2023-06-14T08:17:37;27.67;;;18.48;;
28174;SDS011;59417;44.788;10.334;2023-06-14T08:20:03;22.10;;;17.85;;
28174;SDS011;59417;44.788;10.334;2023-06-14T08:22:30;25.65;;;17.45;;
28174;SDS011;59417;44.788;10.334;2023-06-14T08:25:02;24.45;;;19.08;;
28174;SDS011;59417;44.788;10.334;2023-06-14T08:27:29;31.42;;;22.20;;
28174;SDS011;59417;44.788;10.334;2023-06-14T08:29:55;31.98;;;21.35;;
28174;SDS011;59417;44.788;10.334;2023-06-14T08:32:21;27.10;;;21.02;;
28174;SDS011;59417;44.788;10.334;2023-06-14T08:34:48;28.92;;;20.45;;
28174;SDS011;59417;44.788;10.334;2023-06-14T08:37:13;26.05;;;22.45;;
28174;SDS011;59417;44.788;10.334;2023-06-14T08:39:40;30.00;;;23.80;;
28174;SDS011;59417;44.788;10.334;2023-06-14T08:42:06;27.42;;;21.73;;
28174;SDS011;59417;44.788;10.334;2023-06-14T08:44:34;32.88;;;25.50;;
28174;SDS011;59417;44.788;10.334;2023-06-14T08:47:00;28.13;;;23.02;;
28174;SDS011;59417;44.788;10.334;2023-06-14T08:49:25;28.92;;;22.70;;
28174;SDS011;59417;44.788;10.334;2023-06-14T08:51:57;33.55;;;26.77;;
28174;SDS011;59417;44.788;10.334;2023-06-14T08:54:25;35.70;;;27.05;;
28174;SDS011;59417;44.788;10.334;2023-06-14T08:56:54;37.40;;;28.95;;
28174;SDS011;59417;44.788;10.334;2023-06-14T08:59:25;38.13;;;30.13;;
28174;SDS011;59417;44.788;10.334;2023-06-14T09:04:20;34.17;;;26.25;;
28174;SDS011;59417;44.788;10.334;2023-06-14T09:06:47;33.58;;;26.35;;
28174;SDS011;59417;44.788;10.334;2023-06-14T09:09:21;37.60;;;26.75;;
28174;SDS011;59417;44.788;10.334;2023-06-14T09:11:54;29.42;;;25.27;;
28174;SDS011;59417;44.788;10.334;2023-06-14T09:14:21;28.17;;;23.25;;
28174;SDS011;59417;44.788;10.334;2023-06-14T09:16:52;30.13;;;25.13;;
28174;SDS011;59417;44.788;10.334;2023-06-14T09:19:21;31.80;;;24.23;;
28174;SDS011;59417;44.788;10.334;2023-06-14T09:21:49;31.38;;;24.58;;
28174;SDS011;59417;44.788;10.334;2023-06-14T09:24:15;23.65;;;20.75;;
28174;SDS011;59417;44.788;10.334;2023-06-14T09:26:41;31.67;;;22.10;;
28174;SDS011;59417;44.788;10.334;2023-06-14T09:29:08;31.58;;;23.15;;
28174;SDS011;59417;44.788;10.334;2023-06-14T09:31:34;25.33;;;20.50;;
28174;SDS011;59417;44.788;10.334;2023-06-14T09:34:02;24.83;;;21.85;;
28174;SDS011;59417;44.788;10.334;2023-06-14T09:36:28;27.90;;;19.48;;
28174;SDS011;59417;44.788;10.334;2023-06-14T09:44:08;23.63;;;17.58;;
28174;SDS011;59417;44.788;10.334;2023-06-14T09:46:35;18.23;;;14.90;;
28174;SDS011;59417;44.788;10.334;2023-06-14T09:49:02;15.70;;;13.70;;
28174;SDS011;59417;44.788;10.334;2023-06-14T09:51:28;18.58;;;15.20;;
28174;SDS011;59417;44.788;10.334;2023-06-14T09:54:01;19.65;;;14.00;;
28174;SDS011;59417;44.788;10.334;2023-06-14T09:56:35;16.63;;;13.75;;
28174;SDS011;59417;44.788;10.334;2023-06-14T09:59:04;12.40;;;11.20;;
28174;SDS011;59417;44.788;10.334;2023-06-14T10:01:32;16.48;;;12.27;;
28174;SDS011;59417;44.788;10.334;2023-06-14T10:04:04;14.68;;;12.00;;
28174;SDS011;59417;44.788;10.334;2023-06-14T10:06:30;15.60;;;12.68;;
28174;SDS011;59417;44.788;10.334;2023-06-14T10:08:59;13.90;;;11.32;;
28174;SDS011;59417;44.788;10.334;2023-06-14T10:11:26;11.90;;;9.30;;
28174;SDS011;59417;44.788;10.334;2023-06-14T10:13:53;9.02;;;7.15;;
28174;SDS011;59417;44.788;10.334;2023-06-14T10:19:02;8.93;;;7.82;;
28174;SDS011;59417;44.788;10.334;2023-06-14T10:24:23;12.02;;;9.32;;
28174;SDS011;59417;44.788;10.334;2023-06-14T10:26:57;10.88;;;8.75;;
28174;SDS011;59417;44.788;10.334;2023-06-14T10:29:24;16.77;;;11.68;;
28174;SDS011;59417;44.788;10.334;2023-06-14T10:31:50;11.48;;;9.90;;
28174;SDS011;59417;44.788;10.334;2023-06-14T10:34:21;14.20;;;11.13;;
28174;SDS011;59417;44.788;10.334;2023-06-14T10:36:59;14.93;;;10.63;;
28174;SDS011;59417;44.788;10.334;2023-06-14T10:39:26;11.95;;;10.40;;
28174;SDS011;59417;44.788;10.334;2023-06-14T10:41:53;14.50;;;11.45;;
28174;SDS011;59417;44.788;10.334;2023-06-14T10:46:46;18.55;;;14.23;;
28174;SDS011;59417;44.788;10.334;2023-06-14T10:49:16;23.00;;;16.45;;
28174;SDS011;59417;44.788;10.334;2023-06-14T10:51:49;21.75;;;15.88;;
28174;SDS011;59417;44.788;10.334;2023-06-14T10:54:16;19.60;;;17.23;;
28174;SDS011;59417;44.788;10.334;2023-06-14T10:56:49;20.88;;;16.13;;
28174;SDS011;59417;44.788;10.334;2023-06-14T10:59:17;21.77;;;17.33;;
28174;SDS011;59417;44.788;10.334;2023-06-14T11:09:53;16.70;;;14.95;;
28174;SDS011;59417;44.788;10.334;2023-06-14T11:12:26;16.00;;;12.38;;
28174;SDS011;59417;44.788;10.334;2023-06-14T11:14:54;13.02;;;10.25;;
28174;SDS011;59417;44.788;10.334;2023-06-14T11:17:20;15.63;;;12.05;;
28174;SDS011;59417;44.788;10.334;2023-06-14T11:19:46;13.40;;;11.38;;
28174;SDS011;59417;44.788;10.334;2023-06-14T11:22:11;13.38;;;12.00;;
28174;SDS011;59417;44.788;10.334;2023-06-14T11:24:37;16.50;;;10.63;;
28174;SDS011;59417;44.788;10.334;2023-06-14T11:27:03;11.98;;;10.35;;
28174;SDS011;59417;44.788;10.334;2023-06-14T11:29:29;11.10;;;8.77;;
28174;SDS011;59417;44.788;10.334;2023-06-14T11:31:55;10.55;;;9.45;;
28174;SDS011;59417;44.788;10.334;2023-06-14T11:34:21;12.70;;;7.75;;
28174;SDS011;59417;44.788;10.334;2023-06-14T11:36:47;11.70;;;8.50;;
28174;SDS011;59417;44.788;10.334;2023-06-14T11:39:13;13.07;;;9.18;;
28174;SDS011;59417;44.788;10.334;2023-06-14T11:41:40;15.00;;;8.93;;
28174;SDS011;59417;44.788;10.334;2023-06-14T11:44:07;12.25;;;10.68;;
28174;SDS011;59417;44.788;10.334;2023-06-14T11:46:33;12.38;;;8.98;;
28174;SDS011;59417;44.788;10.334;2023-06-14T11:48:59;10.82;;;9.40;;
28174;SDS011;59417;44.788;10.334;2023-06-14T11:51:29;11.65;;;9.25;;
28174;SDS011;59417;44.788;10.334;2023-06-14T11:53:58;11.75;;;7.65;;
28174;SDS011;59417;44.788;10.334;2023-06-14T11:56:25;10.73;;;7.78;;
28174;SDS011;59417;44.788;10.334;2023-06-14T11:58:52;12.55;;;10.10;;
28174;SDS011;59417;44.788;10.334;2023-06-14T12:01:21;9.73;;;8.80;;
28174;SDS011;59417;44.788;10.334;2023-06-14T12:03:47;18.98;;;9.85;;
28174;SDS011;59417;44.788;10.334;2023-06-14T12:06:14;12.32;;;9.75;;
28174;SDS011;59417;44.788;10.334;2023-06-14T12:08:42;12.80;;;9.45;;
28174;SDS011;59417;44.788;10.334;2023-06-14T12:11:13;13.52;;;8.18;;
28174;SDS011;59417;44.788;10.334;2023-06-14T12:13:40;9.68;;;7.55;;
28174;SDS011;59417;44.788;10.334;2023-06-14T12:16:07;12.30;;;7.22;;
28174;SDS011;59417;44.788;10.334;2023-06-14T12:18:37;10.23;;;7.03;;
28174;SDS011;59417;44.788;10.334;2023-06-14T12:21:05;8.55;;;7.65;;
28174;SDS011;59417;44.788;10.334;2023-06-14T12:23:47;9.82;;;7.13;;
28174;SDS011;59417;44.788;10.334;2023-06-14T12:26:17;7.00;;;6.30;;
28174;SDS011;59417;44.788;10.334;2023-06-14T12:28:44;6.95;;;6.25;;
28174;SDS011;59417;44.788;10.334;2023-06-14T12:31:11;6.10;;;5.43;;
28174;SDS011;59417;44.788;10.334;2023-06-14T12:33:38;9.25;;;5.45;;
28174;SDS011;59417;44.788;10.334;2023-06-14T12:36:05;8.73;;;6.65;;
28174;SDS011;59417;44.788;10.334;2023-06-14T12:38:35;8.25;;;6.05;;
28174;SDS011;59417;44.788;10.334;2023-06-14T12:41:01;6.07;;;5.47;;
28174;SDS011;59417;44.788;10.334;2023-06-14T12:43:27;9.55;;;6.18;;
28174;SDS011;59417;44.788;10.334;2023-06-14T12:45:53;9.48;;;5.93;;
28174;SDS011;59417;44.788;10.334;2023-06-14T12:48:19;6.78;;;5.50;;
28174;SDS011;59417;44.788;10.334;2023-06-14T12:50:45;7.85;;;5.38;;
28174;SDS011;59417;44.788;10.334;2023-06-14T12:53:11;8.32;;;5.20;;
28174;SDS011;59417;44.788;10.334;2023-06-14T12:55:37;5.93;;;4.97;;
28174;SDS011;59417;44.788;10.334;2023-06-14T12:58:03;6.93;;;5.32;;
28174;SDS011;59417;44.788;10.334;2023-06-14T13:00:29;7.00;;;6.13;;
28174;SDS011;59417;44.788;10.334;2023-06-14T13:02:56;10.15;;;6.28;;
28174;SDS011;59417;44.788;10.334;2023-06-14T13:05:22;10.15;;;5.95;;
28174;SDS011;59417;44.788;10.334;2023-06-14T13:07:48;8.27;;;6.78;;
28174;SDS011;59417;44.788;10.334;2023-06-14T13:10:15;8.38;;;6.43;;
28174;SDS011;59417;44.788;10.334;2023-06-14T13:12:42;9.43;;;7.22;;
28174;SDS011;59417;44.788;10.334;2023-06-14T13:15:08;10.98;;;7.28;;
28174;SDS011;59417;44.788;10.334;2023-06-14T13:17:34;9.02;;;7.47;;
28174;SDS011;59417;44.788;10.334;2023-06-14T13:20:06;8.63;;;7.72;;
28174;SDS011;59417;44.788;10.334;2023-06-14T13:22:36;9.27;;;6.60;;
28174;SDS011;59417;44.788;10.334;2023-06-14T13:25:02;9.63;;;6.95;;
28174;SDS011;59417;44.788;10.334;2023-06-14T13:27:29;8.00;;;6.07;;
28174;SDS011;59417;44.788;10.334;2023-06-14T13:29:54;9.80;;;6.10;;
28174;SDS011;59417;44.788;10.334;2023-06-14T13:32:20;6.28;;;5.60;;
28174;SDS011;59417;44.788;10.334;2023-06-14T13:34:47;7.57;;;6.10;;
28174;SDS011;59417;44.788;10.334;2023-06-14T13:37:13;6.10;;;5.47;;
28174;SDS011;59417;44.788;10.334;2023-06-14T13:39:38;7.43;;;5.88;;
28174;SDS011;59417;44.788;10.334;2023-06-14T13:42:04;9.68;;;6.60;;
28174;SDS011;59417;44.788;10.334;2023-06-14T13:44:30;8.13;;;6.07;;
28174;SDS011;59417;44.788;10.334;2023-06-14T13:46:56;6.10;;;5.30;;
28174;SDS011;59417;44.788;10.334;2023-06-14T13:49:22;6.25;;;5.65;;
28174;SDS011;59417;44.788;10.334;2023-06-14T13:51:47;8.88;;;5.63;;
28174;SDS011;59417;44.788;10.334;2023-06-14T13:54:13;5.80;;;5.22;;
28174;SDS011;59417;44.788;10.334;2023-06-14T13:56:40;6.63;;;5.35;;
28174;SDS011;59417;44.788;10.334;2023-06-14T13:59:06;10.70;;;5.93;;
28174;SDS011;59417;44.788;10.334;2023-06-14T14:01:32;8.10;;;5.55;;
28174;SDS011;59417;44.788;10.334;2023-06-14T14:03:58;7.18;;;5.85;;
28174;SDS011;59417;44.788;10.334;2023-06-14T14:06:26;6.07;;;5.47;;
28174;SDS011;59417;44.788;10.334;2023-06-14T14:08:52;10.15;;;5.03;;
28174;SDS011;59417;44.788;10.334;2023-06-14T14:11:18;8.25;;;5.00;;
28174;SDS011;59417;44.788;10.334;2023-06-14T14:13:44;5.25;;;4.43;;
28174;SDS011;59417;44.788;10.334;2023-06-14T14:16:10;9.88;;;5.85;;
28174;SDS011;59417;44.788;10.334;2023-06-14T14:18:36;5.35;;;4.85;;
28174;SDS011;59417;44.788;10.334;2023-06-14T14:21:02;5.25;;;4.68;;
28174;SDS011;59417;44.788;10.334;2023-06-14T14:23:28;6.97;;;5.60;;
28174;SDS011;59417;44.788;10.334;2023-06-14T14:25:57;6.05;;;5.47;;
28174;SDS011;59417;44.788;10.334;2023-06-14T14:28:23;6.90;;;4.63;;
28174;SDS011;59417;44.788;10.334;2023-06-14T14:30:51;8.80;;;5.18;;
28174;SDS011;59417;44.788;10.334;2023-06-14T14:33:18;6.15;;;5.25;;
28174;SDS011;59417;44.788;10.334;2023-06-14T14:35:44;6.13;;;4.68;;
28174;SDS011;59417;44.788;10.334;2023-06-14T14:38:13;6.30;;;4.82;;
28174;SDS011;59417;44.788;10.334;2023-06-14T14:43:09;9.55;;;5.75;;
28174;SDS011;59417;44.788;10.334;2023-06-14T14:45:35;5.72;;;5.13;;
28174;SDS011;59417;44.788;10.334;2023-06-14T14:48:01;6.15;;;5.28;;
28174;SDS011;59417;44.788;10.334;2023-06-14T14:50:28;6.32;;;5.13;;
28174;SDS011;59417;44.788;10.334;2023-06-14T14:52:53;11.90;;;6.03;;
28174;SDS011;59417;44.788;10.334;2023-06-14T14:55:19;8.35;;;6.10;;
28174;SDS011;59417;44.788;10.334;2023-06-14T14:57:45;9.20;;;5.57;;